sensor_id;sensor_type;location;lat;lon;timestamp;temperature;humidity
35497;DHT22;21609;49.298;6.844;2022-07-22T00:00:27;24.10;57.00
35497;DHT22;21609;49.298;6.844;2022-07-22T00:02:53;24.00;56.90
35497;DHT22;21609;49.298;6.844;2022-07-22T00:05:19;24.00;57.00
35497;DHT22;21609;49.298;6.844;2022-07-22T00:07:44;24.00;57.00
35497;DHT22;21609;49.298;6.844;2022-07-22T00:10:10;24.00;56.90
35497;DHT22;21609;49.298;6.844;2022-07-22T00:12:39;24.00;56.90
35497;DHT22;21609;49.298;6.844;2022-07-22T00:15:05;24.00;57.00
35497;DHT22;21609;49.298;6.844;2022-07-22T00:17:31;24.00;57.00
35497;DHT22;21609;49.298;6.844;2022-07-22T00:19:56;24.00;57.00
35497;DHT22;21609;49.298;6.844;2022-07-22T00:22:22;23.90;57.00
35497;DHT22;21609;49.298;6.844;2022-07-22T00:24:48;23.90;57.00
35497;DHT22;21609;49.298;6.844;2022-07-22T00:27:13;23.90;57.00
35497;DHT22;21609;49.298;6.844;2022-07-22T00:29:39;23.90;57.00
35497;DHT22;21609;49.298;6.844;2022-07-22T00:32:05;23.90;57.00
35497;DHT22;21609;49.298;6.844;2022-07-22T00:34:30;23.90;57.00
35497;DHT22;21609;49.298;6.844;2022-07-22T00:36:56;23.90;57.00
35497;DHT22;21609;49.298;6.844;2022-07-22T00:39:22;23.90;57.10
35497;DHT22;21609;49.298;6.844;2022-07-22T00:41:48;23.90;57.00
35497;DHT22;21609;49.298;6.844;2022-07-22T00:44:14;23.80;57.00
35497;DHT22;21609;49.298;6.844;2022-07-22T00:46:39;23.80;57.00
35497;DHT22;21609;49.298;6.844;2022-07-22T00:49:07;23.80;57.00
35497;DHT22;21609;49.298;6.844;2022-07-22T00:51:33;23.80;57.00
35497;DHT22;21609;49.298;6.844;2022-07-22T00:54:00;23.80;57.00
35497;DHT22;21609;49.298;6.844;2022-07-22T00:56:27;23.80;57.00
35497;DHT22;21609;49.298;6.844;2022-07-22T00:58:56;23.80;57.00
35497;DHT22;21609;49.298;6.844;2022-07-22T01:01:22;23.80;57.00
35497;DHT22;21609;49.298;6.844;2022-07-22T01:03:47;23.80;57.10
35497;DHT22;21609;49.298;6.844;2022-07-22T01:06:13;23.70;57.10
35497;DHT22;21609;49.298;6.844;2022-07-22T01:08:39;23.70;57.10
35497;DHT22;21609;49.298;6.844;2022-07-22T01:11:16;23.70;57.10
35497;DHT22;21609;49.298;6.844;2022-07-22T01:13:42;23.70;57.10
35497;DHT22;21609;49.298;6.844;2022-07-22T01:16:09;23.70;57.10
35497;DHT22;21609;49.298;6.844;2022-07-22T01:18:36;23.70;57.10
35497;DHT22;21609;49.298;6.844;2022-07-22T01:21:03;23.60;57.00
35497;DHT22;21609;49.298;6.844;2022-07-22T01:23:29;23.60;57.10
35497;DHT22;21609;49.298;6.844;2022-07-22T01:25:55;23.60;57.00
35497;DHT22;21609;49.298;6.844;2022-07-22T01:28:22;23.60;57.10
35497;DHT22;21609;49.298;6.844;2022-07-22T01:30:47;23.60;57.10
35497;DHT22;21609;49.298;6.844;2022-07-22T01:33:18;23.60;57.10
35497;DHT22;21609;49.298;6.844;2022-07-22T01:35:43;23.60;57.10
35497;DHT22;21609;49.298;6.844;2022-07-22T01:38:09;23.50;57.10
35497;DHT22;21609;49.298;6.844;2022-07-22T01:40:35;23.50;57.10
35497;DHT22;21609;49.298;6.844;2022-07-22T01:43:01;23.50;57.10
35497;DHT22;21609;49.298;6.844;2022-07-22T01:45:26;23.50;57.20
35497;DHT22;21609;49.298;6.844;2022-07-22T01:47:52;23.50;57.10
35497;DHT22;21609;49.298;6.844;2022-07-22T01:50:18;23.50;57.10
35497;DHT22;21609;49.298;6.844;2022-07-22T01:52:43;23.50;57.00
35497;DHT22;21609;49.298;6.844;2022-07-22T01:55:09;23.50;57.00
35497;DHT22;21609;49.298;6.844;2022-07-22T01:57:37;23.50;57.00
35497;DHT22;21609;49.298;6.844;2022-07-22T02:00:05;23.40;57.00
35497;DHT22;21609;49.298;6.844;2022-07-22T02:02:32;23.40;57.00
35497;DHT22;21609;49.298;6.844;2022-07-22T02:04:57;23.50;57.00
35497;DHT22;21609;49.298;6.844;2022-07-22T02:07:23;23.40;57.00
35497;DHT22;21609;49.298;6.844;2022-07-22T02:09:51;23.40;57.00
35497;DHT22;21609;49.298;6.844;2022-07-22T02:12:17;23.40;57.00
35497;DHT22;21609;49.298;6.844;2022-07-22T02:14:43;23.40;57.00
35497;DHT22;21609;49.298;6.844;2022-07-22T02:17:09;23.40;57.00
35497;DHT22;21609;49.298;6.844;2022-07-22T02:19:35;23.40;56.90
35497;DHT22;21609;49.298;6.844;2022-07-22T02:22:00;23.30;56.90
35497;DHT22;21609;49.298;6.844;2022-07-22T02:24:26;23.30;56.90
35497;DHT22;21609;49.298;6.844;2022-07-22T02:26:52;23.30;56.90
35497;DHT22;21609;49.298;6.844;2022-07-22T02:29:17;23.30;56.80
35497;DHT22;21609;49.298;6.844;2022-07-22T02:31:43;23.30;56.90
35497;DHT22;21609;49.298;6.844;2022-07-22T02:34:08;23.30;56.80
35497;DHT22;21609;49.298;6.844;2022-07-22T02:36:34;23.30;56.90
35497;DHT22;21609;49.298;6.844;2022-07-22T02:39:00;23.30;56.90
35497;DHT22;21609;49.298;6.844;2022-07-22T02:41:25;23.20;56.90
35497;DHT22;21609;49.298;6.844;2022-07-22T02:43:52;23.20;56.80
35497;DHT22;21609;49.298;6.844;2022-07-22T02:46:21;23.20;56.90
35497;DHT22;21609;49.298;6.844;2022-07-22T02:48:47;23.20;56.90
35497;DHT22;21609;49.298;6.844;2022-07-22T02:51:12;23.20;56.90
35497;DHT22;21609;49.298;6.844;2022-07-22T02:53:38;23.20;56.90
35497;DHT22;21609;49.298;6.844;2022-07-22T02:56:04;23.10;56.90
35497;DHT22;21609;49.298;6.844;2022-07-22T02:58:30;23.20;56.90
35497;DHT22;21609;49.298;6.844;2022-07-22T03:00:55;23.10;56.90
35497;DHT22;21609;49.298;6.844;2022-07-22T03:03:21;23.10;56.90
35497;DHT22;21609;49.298;6.844;2022-07-22T03:05:46;23.10;56.90
35497;DHT22;21609;49.298;6.844;2022-07-22T03:08:12;23.10;56.90
35497;DHT22;21609;49.298;6.844;2022-07-22T03:10:38;23.10;56.90
35497;DHT22;21609;49.298;6.844;2022-07-22T03:13:03;23.10;56.90
35497;DHT22;21609;49.298;6.844;2022-07-22T03:15:32;23.10;56.90
35497;DHT22;21609;49.298;6.844;2022-07-22T03:17:58;23.00;57.40
35497;DHT22;21609;49.298;6.844;2022-07-22T03:20:23;23.00;56.80
35497;DHT22;21609;49.298;6.844;2022-07-22T03:22:49;23.00;56.90
35497;DHT22;21609;49.298;6.844;2022-07-22T03:25:14;23.00;56.80
35497;DHT22;21609;49.298;6.844;2022-07-22T03:27:40;23.00;56.90
35497;DHT22;21609;49.298;6.844;2022-07-22T03:30:06;23.00;56.90
35497;DHT22;21609;49.298;6.844;2022-07-22T03:32:31;22.90;57.50
35497;DHT22;21609;49.298;6.844;2022-07-22T03:34:57;23.00;56.80
35497;DHT22;21609;49.298;6.844;2022-07-22T03:37:23;23.00;56.80
35497;DHT22;21609;49.298;6.844;2022-07-22T03:39:48;22.90;56.80
35497;DHT22;21609;49.298;6.844;2022-07-22T03:42:14;22.90;56.80
35497;DHT22;21609;49.298;6.844;2022-07-22T03:44:40;22.90;56.80
35497;DHT22;21609;49.298;6.844;2022-07-22T03:47:05;22.90;56.80
35497;DHT22;21609;49.298;6.844;2022-07-22T03:49:31;22.80;56.70
35497;DHT22;21609;49.298;6.844;2022-07-22T03:51:57;22.90;57.40
35497;DHT22;21609;49.298;6.844;2022-07-22T03:54:23;22.80;56.70
35497;DHT22;21609;49.298;6.844;2022-07-22T03:56:49;22.80;56.80
35497;DHT22;21609;49.298;6.844;2022-07-22T03:59:15;22.80;56.70
35497;DHT22;21609;49.298;6.844;2022-07-22T04:01:41;22.80;56.80
35497;DHT22;21609;49.298;6.844;2022-07-22T04:04:07;22.80;56.70
35497;DHT22;21609;49.298;6.844;2022-07-22T04:06:33;22.80;56.80
35497;DHT22;21609;49.298;6.844;2022-07-22T04:08:58;22.70;56.80
35497;DHT22;21609;49.298;6.844;2022-07-22T04:11:24;22.80;56.90
35497;DHT22;21609;49.298;6.844;2022-07-22T04:13:50;22.80;56.90
35497;DHT22;21609;49.298;6.844;2022-07-22T04:16:15;22.70;56.90
35497;DHT22;21609;49.298;6.844;2022-07-22T04:18:41;22.70;56.90
35497;DHT22;21609;49.298;6.844;2022-07-22T04:21:06;22.70;57.00
35497;DHT22;21609;49.298;6.844;2022-07-22T04:23:32;22.70;56.90
35497;DHT22;21609;49.298;6.844;2022-07-22T04:25:58;22.70;56.90
35497;DHT22;21609;49.298;6.844;2022-07-22T04:28:24;22.70;56.90
35497;DHT22;21609;49.298;6.844;2022-07-22T04:30:50;22.70;57.00
35497;DHT22;21609;49.298;6.844;2022-07-22T04:33:15;22.70;57.00
35497;DHT22;21609;49.298;6.844;2022-07-22T04:35:41;22.70;57.00
35497;DHT22;21609;49.298;6.844;2022-07-22T04:38:06;22.70;57.10
35497;DHT22;21609;49.298;6.844;2022-07-22T04:40:32;22.70;57.10
35497;DHT22;21609;49.298;6.844;2022-07-22T04:42:58;22.70;57.10
35497;DHT22;21609;49.298;6.844;2022-07-22T04:45:23;22.70;57.10
35497;DHT22;21609;49.298;6.844;2022-07-22T04:47:49;22.70;57.10
35497;DHT22;21609;49.298;6.844;2022-07-22T04:50:15;22.70;57.10
35497;DHT22;21609;49.298;6.844;2022-07-22T04:52:40;22.70;57.00
35497;DHT22;21609;49.298;6.844;2022-07-22T04:55:06;22.70;57.30
35497;DHT22;21609;49.298;6.844;2022-07-22T04:57:32;22.70;57.50
35497;DHT22;21609;49.298;6.844;2022-07-22T04:59:57;22.70;57.70
35497;DHT22;21609;49.298;6.844;2022-07-22T05:02:23;22.60;57.70
35497;DHT22;21609;49.298;6.844;2022-07-22T05:04:48;22.70;57.70
35497;DHT22;21609;49.298;6.844;2022-07-22T05:07:14;22.70;57.60
35497;DHT22;21609;49.298;6.844;2022-07-22T05:09:40;22.70;57.60
35497;DHT22;21609;49.298;6.844;2022-07-22T05:12:06;22.70;57.50
35497;DHT22;21609;49.298;6.844;2022-07-22T05:14:32;22.70;57.50
35497;DHT22;21609;49.298;6.844;2022-07-22T05:16:58;22.70;57.70
35497;DHT22;21609;49.298;6.844;2022-07-22T05:19:23;22.70;57.70
35497;DHT22;21609;49.298;6.844;2022-07-22T05:21:49;22.70;57.70
35497;DHT22;21609;49.298;6.844;2022-07-22T05:24:15;22.80;57.70
35497;DHT22;21609;49.298;6.844;2022-07-22T05:26:40;22.80;57.70
35497;DHT22;21609;49.298;6.844;2022-07-22T05:29:06;22.80;58.00
35497;DHT22;21609;49.298;6.844;2022-07-22T05:31:31;22.80;58.10
35497;DHT22;21609;49.298;6.844;2022-07-22T05:33:57;22.80;58.30
35497;DHT22;21609;49.298;6.844;2022-07-22T05:36:23;22.80;58.20
35497;DHT22;21609;49.298;6.844;2022-07-22T05:38:48;22.80;58.20
35497;DHT22;21609;49.298;6.844;2022-07-22T05:41:14;22.80;58.20
35497;DHT22;21609;49.298;6.844;2022-07-22T05:43:40;22.80;58.40
35497;DHT22;21609;49.298;6.844;2022-07-22T05:46:06;22.80;58.30
35497;DHT22;21609;49.298;6.844;2022-07-22T05:48:33;22.80;58.30
35497;DHT22;21609;49.298;6.844;2022-07-22T05:50:58;22.70;58.50
35497;DHT22;21609;49.298;6.844;2022-07-22T05:53:24;22.60;58.70
35497;DHT22;21609;49.298;6.844;2022-07-22T05:55:50;22.70;58.80
35497;DHT22;21609;49.298;6.844;2022-07-22T05:58:15;22.70;58.60
35497;DHT22;21609;49.298;6.844;2022-07-22T06:00:41;22.70;58.60
35497;DHT22;21609;49.298;6.844;2022-07-22T06:03:07;22.70;58.80
35497;DHT22;21609;49.298;6.844;2022-07-22T06:05:33;22.70;59.20
35497;DHT22;21609;49.298;6.844;2022-07-22T06:08:01;22.70;59.30
35497;DHT22;21609;49.298;6.844;2022-07-22T06:10:27;22.60;59.10
35497;DHT22;21609;49.298;6.844;2022-07-22T06:12:52;22.60;59.10
35497;DHT22;21609;49.298;6.844;2022-07-22T06:15:18;22.60;59.10
35497;DHT22;21609;49.298;6.844;2022-07-22T06:17:43;22.60;59.10
35497;DHT22;21609;49.298;6.844;2022-07-22T06:20:09;22.60;59.20
35497;DHT22;21609;49.298;6.844;2022-07-22T06:22:35;22.70;59.10
35497;DHT22;21609;49.298;6.844;2022-07-22T06:25:00;22.70;59.00
35497;DHT22;21609;49.298;6.844;2022-07-22T06:27:26;22.70;59.70
35497;DHT22;21609;49.298;6.844;2022-07-22T06:29:52;22.70;59.00
35497;DHT22;21609;49.298;6.844;2022-07-22T06:32:17;22.80;59.00
35497;DHT22;21609;49.298;6.844;2022-07-22T06:34:43;22.70;58.80
35497;DHT22;21609;49.298;6.844;2022-07-22T06:37:08;22.80;58.80
35497;DHT22;21609;49.298;6.844;2022-07-22T06:39:34;22.80;58.80
35497;DHT22;21609;49.298;6.844;2022-07-22T06:42:00;22.80;58.90
35497;DHT22;21609;49.298;6.844;2022-07-22T06:44:26;22.80;58.70
35497;DHT22;21609;49.298;6.844;2022-07-22T06:46:51;22.80;58.80
35497;DHT22;21609;49.298;6.844;2022-07-22T06:49:17;22.80;58.70
35497;DHT22;21609;49.298;6.844;2022-07-22T06:51:42;22.80;58.60
35497;DHT22;21609;49.298;6.844;2022-07-22T06:54:08;22.90;58.60
35497;DHT22;21609;49.298;6.844;2022-07-22T06:56:34;22.90;58.60
35497;DHT22;21609;49.298;6.844;2022-07-22T06:58:59;23.00;58.70
35497;DHT22;21609;49.298;6.844;2022-07-22T07:01:25;23.00;58.60
35497;DHT22;21609;49.298;6.844;2022-07-22T07:03:51;22.90;58.50
35497;DHT22;21609;49.298;6.844;2022-07-22T07:06:17;23.00;58.50
35497;DHT22;21609;49.298;6.844;2022-07-22T07:08:42;23.00;58.50
35497;DHT22;21609;49.298;6.844;2022-07-22T07:11:08;23.00;58.40
35497;DHT22;21609;49.298;6.844;2022-07-22T07:13:33;23.00;58.50
35497;DHT22;21609;49.298;6.844;2022-07-22T07:15:59;23.00;58.60
35497;DHT22;21609;49.298;6.844;2022-07-22T07:18:25;23.00;58.40
35497;DHT22;21609;49.298;6.844;2022-07-22T07:20:51;23.10;58.40
35497;DHT22;21609;49.298;6.844;2022-07-22T07:23:16;23.10;58.30
35497;DHT22;21609;49.298;6.844;2022-07-22T07:25:42;23.10;58.20
35497;DHT22;21609;49.298;6.844;2022-07-22T07:28:07;23.10;58.10
35497;DHT22;21609;49.298;6.844;2022-07-22T07:30:33;23.20;58.00
35497;DHT22;21609;49.298;6.844;2022-07-22T07:32:59;23.20;58.00
35497;DHT22;21609;49.298;6.844;2022-07-22T07:35:26;23.20;58.00
35497;DHT22;21609;49.298;6.844;2022-07-22T07:37:52;23.20;57.90
35497;DHT22;21609;49.298;6.844;2022-07-22T07:40:18;23.20;57.70
35497;DHT22;21609;49.298;6.844;2022-07-22T07:42:44;23.30;57.80
35497;DHT22;21609;49.298;6.844;2022-07-22T07:45:10;23.30;57.70
35497;DHT22;21609;49.298;6.844;2022-07-22T07:47:36;23.30;57.60
35497;DHT22;21609;49.298;6.844;2022-07-22T07:50:04;23.30;57.50
35497;DHT22;21609;49.298;6.844;2022-07-22T07:52:30;23.40;57.50
35497;DHT22;21609;49.298;6.844;2022-07-22T07:54:55;23.40;57.40
35497;DHT22;21609;49.298;6.844;2022-07-22T07:57:22;23.40;57.40
35497;DHT22;21609;49.298;6.844;2022-07-22T07:59:47;23.40;57.40
35497;DHT22;21609;49.298;6.844;2022-07-22T08:02:13;23.40;57.30
35497;DHT22;21609;49.298;6.844;2022-07-22T08:04:39;23.40;57.30
35497;DHT22;21609;49.298;6.844;2022-07-22T08:07:06;23.40;57.20
35497;DHT22;21609;49.298;6.844;2022-07-22T08:09:32;23.40;57.10
35497;DHT22;21609;49.298;6.844;2022-07-22T08:11:58;23.50;57.20
35497;DHT22;21609;49.298;6.844;2022-07-22T08:14:24;23.50;57.10
35497;DHT22;21609;49.298;6.844;2022-07-22T08:16:50;23.50;57.10
35497;DHT22;21609;49.298;6.844;2022-07-22T08:19:16;23.50;57.10
35497;DHT22;21609;49.298;6.844;2022-07-22T08:21:41;23.50;57.00
35497;DHT22;21609;49.298;6.844;2022-07-22T08:24:10;23.50;57.00
35497;DHT22;21609;49.298;6.844;2022-07-22T08:26:36;23.60;57.10
35497;DHT22;21609;49.298;6.844;2022-07-22T08:29:03;23.60;57.00
35497;DHT22;21609;49.298;6.844;2022-07-22T08:31:29;23.60;57.00
35497;DHT22;21609;49.298;6.844;2022-07-22T08:33:54;23.60;56.90
35497;DHT22;21609;49.298;6.844;2022-07-22T08:36:20;23.60;57.00
35497;DHT22;21609;49.298;6.844;2022-07-22T08:38:45;23.60;56.90
35497;DHT22;21609;49.298;6.844;2022-07-22T08:41:13;23.70;56.90
35497;DHT22;21609;49.298;6.844;2022-07-22T08:43:40;23.60;56.80
35497;DHT22;21609;49.298;6.844;2022-07-22T08:46:08;23.60;56.70
35497;DHT22;21609;49.298;6.844;2022-07-22T08:48:36;23.60;56.70
35497;DHT22;21609;49.298;6.844;2022-07-22T08:51:02;23.70;56.70
35497;DHT22;21609;49.298;6.844;2022-07-22T08:53:28;23.70;56.70
35497;DHT22;21609;49.298;6.844;2022-07-22T08:55:53;23.70;57.40
35497;DHT22;21609;49.298;6.844;2022-07-22T08:58:19;23.80;56.70
35497;DHT22;21609;49.298;6.844;2022-07-22T09:00:45;23.80;56.60
35497;DHT22;21609;49.298;6.844;2022-07-22T09:03:21;23.80;56.60
35497;DHT22;21609;49.298;6.844;2022-07-22T09:05:48;23.80;56.50
35497;DHT22;21609;49.298;6.844;2022-07-22T09:08:14;23.80;56.50
35497;DHT22;21609;49.298;6.844;2022-07-22T09:10:40;23.80;56.40
35497;DHT22;21609;49.298;6.844;2022-07-22T09:13:07;23.80;56.40
35497;DHT22;21609;49.298;6.844;2022-07-22T09:15:35;23.80;56.40
35497;DHT22;21609;49.298;6.844;2022-07-22T09:18:02;23.90;56.50
35497;DHT22;21609;49.298;6.844;2022-07-22T09:20:28;23.90;56.30
35497;DHT22;21609;49.298;6.844;2022-07-22T09:22:55;23.90;56.30
35497;DHT22;21609;49.298;6.844;2022-07-22T09:25:33;23.90;56.30
35497;DHT22;21609;49.298;6.844;2022-07-22T09:30:45;23.90;56.20
35497;DHT22;21609;49.298;6.844;2022-07-22T09:33:11;23.90;56.20
35497;DHT22;21609;49.298;6.844;2022-07-22T09:35:37;24.00;56.10
35497;DHT22;21609;49.298;6.844;2022-07-22T09:38:06;24.00;56.10
35497;DHT22;21609;49.298;6.844;2022-07-22T09:40:44;24.00;56.10
35497;DHT22;21609;49.298;6.844;2022-07-22T09:45:48;24.00;56.10
35497;DHT22;21609;49.298;6.844;2022-07-22T09:48:16;24.10;56.00
35497;DHT22;21609;49.298;6.844;2022-07-22T09:50:43;24.10;56.00
35497;DHT22;21609;49.298;6.844;2022-07-22T09:53:08;24.10;56.00
35497;DHT22;21609;49.298;6.844;2022-07-22T09:55:34;24.10;55.90
35497;DHT22;21609;49.298;6.844;2022-07-22T09:58:04;24.10;55.90
35497;DHT22;21609;49.298;6.844;2022-07-22T10:00:31;24.20;55.90
35497;DHT22;21609;49.298;6.844;2022-07-22T10:03:02;24.10;55.80
35497;DHT22;21609;49.298;6.844;2022-07-22T10:05:30;24.20;55.90
35497;DHT22;21609;49.298;6.844;2022-07-22T10:07:58;24.20;55.80
35497;DHT22;21609;49.298;6.844;2022-07-22T10:10:27;24.20;55.70
35497;DHT22;21609;49.298;6.844;2022-07-22T10:12:56;24.20;55.80
35497;DHT22;21609;49.298;6.844;2022-07-22T10:15:23;24.20;55.70
35497;DHT22;21609;49.298;6.844;2022-07-22T10:17:54;24.20;55.70
35497;DHT22;21609;49.298;6.844;2022-07-22T10:20:22;24.20;55.60
35497;DHT22;21609;49.298;6.844;2022-07-22T10:23:08;24.20;55.60
35497;DHT22;21609;49.298;6.844;2022-07-22T10:25:54;24.30;55.70
35497;DHT22;21609;49.298;6.844;2022-07-22T10:28:23;24.30;55.60
35497;DHT22;21609;49.298;6.844;2022-07-22T10:30:48;24.30;55.60
35497;DHT22;21609;49.298;6.844;2022-07-22T10:33:15;24.30;55.60
35497;DHT22;21609;49.298;6.844;2022-07-22T10:38:09;24.40;55.60
35497;DHT22;21609;49.298;6.844;2022-07-22T10:43:16;24.30;55.60
35497;DHT22;21609;49.298;6.844;2022-07-22T10:45:48;24.30;55.60
35497;DHT22;21609;49.298;6.844;2022-07-22T10:48:16;24.30;55.60
35497;DHT22;21609;49.298;6.844;2022-07-22T10:50:45;24.30;55.60
35497;DHT22;21609;49.298;6.844;2022-07-22T10:53:14;24.30;55.60
35497;DHT22;21609;49.298;6.844;2022-07-22T10:56:00;24.40;55.60
35497;DHT22;21609;49.298;6.844;2022-07-22T11:01:08;24.40;55.50
35497;DHT22;21609;49.298;6.844;2022-07-22T11:03:36;24.40;55.50
35497;DHT22;21609;49.298;6.844;2022-07-22T11:06:30;24.40;55.50
35497;DHT22;21609;49.298;6.844;2022-07-22T11:09:07;24.40;55.50
35497;DHT22;21609;49.298;6.844;2022-07-22T11:11:34;24.40;55.50
35497;DHT22;21609;49.298;6.844;2022-07-22T11:14:00;24.40;56.00
35497;DHT22;21609;49.298;6.844;2022-07-22T11:16:27;24.40;55.40
35497;DHT22;21609;49.298;6.844;2022-07-22T11:18:56;24.50;55.40
35497;DHT22;21609;49.298;6.844;2022-07-22T11:21:24;24.50;55.40
35497;DHT22;21609;49.298;6.844;2022-07-22T11:23:52;24.50;55.40
35497;DHT22;21609;49.298;6.844;2022-07-22T11:26:24;24.50;55.40
35497;DHT22;21609;49.298;6.844;2022-07-22T11:28:50;24.50;55.40
35497;DHT22;21609;49.298;6.844;2022-07-22T11:31:18;24.50;55.60
35497;DHT22;21609;49.298;6.844;2022-07-22T11:33:46;24.50;55.60
35497;DHT22;21609;49.298;6.844;2022-07-22T11:36:12;24.50;55.50
35497;DHT22;21609;49.298;6.844;2022-07-22T11:38:47;24.60;55.40
35497;DHT22;21609;49.298;6.844;2022-07-22T11:41:17;24.50;55.30
35497;DHT22;21609;49.298;6.844;2022-07-22T11:43:50;24.50;56.00
35497;DHT22;21609;49.298;6.844;2022-07-22T11:46:17;24.50;55.40
35497;DHT22;21609;49.298;6.844;2022-07-22T11:48:43;24.60;55.50
35497;DHT22;21609;49.298;6.844;2022-07-22T11:51:11;24.60;55.50
35497;DHT22;21609;49.298;6.844;2022-07-22T11:53:38;24.50;56.00
35497;DHT22;21609;49.298;6.844;2022-07-22T11:56:05;24.60;55.50
35497;DHT22;21609;49.298;6.844;2022-07-22T12:01:01;24.60;55.40
35497;DHT22;21609;49.298;6.844;2022-07-22T12:03:27;24.60;55.60
35497;DHT22;21609;49.298;6.844;2022-07-22T12:05:53;24.60;55.50
35497;DHT22;21609;49.298;6.844;2022-07-22T12:08:19;24.60;55.60
35497;DHT22;21609;49.298;6.844;2022-07-22T12:10:45;24.70;55.50
35497;DHT22;21609;49.298;6.844;2022-07-22T12:13:11;24.70;55.50
35497;DHT22;21609;49.298;6.844;2022-07-22T12:15:39;24.70;55.40
35497;DHT22;21609;49.298;6.844;2022-07-22T12:18:18;24.70;56.00
35497;DHT22;21609;49.298;6.844;2022-07-22T12:20:45;24.70;55.40
35497;DHT22;21609;49.298;6.844;2022-07-22T12:23:12;24.70;55.30
35497;DHT22;21609;49.298;6.844;2022-07-22T12:25:51;24.70;55.30
35497;DHT22;21609;49.298;6.844;2022-07-22T12:28:17;24.70;55.40
35497;DHT22;21609;49.298;6.844;2022-07-22T12:30:43;24.80;55.20
35497;DHT22;21609;49.298;6.844;2022-07-22T12:33:16;24.80;55.20
35497;DHT22;21609;49.298;6.844;2022-07-22T12:35:43;24.80;55.20
35497;DHT22;21609;49.298;6.844;2022-07-22T12:38:10;24.80;55.10
35497;DHT22;21609;49.298;6.844;2022-07-22T12:40:36;24.90;55.10
35497;DHT22;21609;49.298;6.844;2022-07-22T12:43:07;24.90;55.00
35497;DHT22;21609;49.298;6.844;2022-07-22T12:45:34;24.90;54.90
35497;DHT22;21609;49.298;6.844;2022-07-22T12:53:03;24.90;55.00
35497;DHT22;21609;49.298;6.844;2022-07-22T12:55:32;24.90;55.00
35497;DHT22;21609;49.298;6.844;2022-07-22T12:57:58;25.00;54.90
35497;DHT22;21609;49.298;6.844;2022-07-22T13:00:26;24.90;54.90
35497;DHT22;21609;49.298;6.844;2022-07-22T13:02:52;25.00;55.00
35497;DHT22;21609;49.298;6.844;2022-07-22T13:05:19;25.00;54.80
35497;DHT22;21609;49.298;6.844;2022-07-22T13:07:45;25.00;54.90
35497;DHT22;21609;49.298;6.844;2022-07-22T13:10:12;25.00;54.80
35497;DHT22;21609;49.298;6.844;2022-07-22T13:12:38;25.00;54.80
35497;DHT22;21609;49.298;6.844;2022-07-22T13:15:04;25.00;54.80
35497;DHT22;21609;49.298;6.844;2022-07-22T13:17:30;25.00;54.80
35497;DHT22;21609;49.298;6.844;2022-07-22T13:19:56;25.00;54.80
35497;DHT22;21609;49.298;6.844;2022-07-22T13:22:21;24.90;54.80
35497;DHT22;21609;49.298;6.844;2022-07-22T13:24:47;25.00;54.90
35497;DHT22;21609;49.298;6.844;2022-07-22T13:27:13;25.00;54.90
35497;DHT22;21609;49.298;6.844;2022-07-22T13:29:39;25.00;54.80
35497;DHT22;21609;49.298;6.844;2022-07-22T13:32:05;25.00;54.80
35497;DHT22;21609;49.298;6.844;2022-07-22T13:34:31;25.00;54.80
35497;DHT22;21609;49.298;6.844;2022-07-22T13:36:57;25.00;54.70
35497;DHT22;21609;49.298;6.844;2022-07-22T13:39:23;25.00;54.70
35497;DHT22;21609;49.298;6.844;2022-07-22T13:41:49;25.00;54.60
35497;DHT22;21609;49.298;6.844;2022-07-22T13:44:15;25.10;54.60
35497;DHT22;21609;49.298;6.844;2022-07-22T13:46:40;25.10;54.60
35497;DHT22;21609;49.298;6.844;2022-07-22T13:49:06;25.10;54.60
35497;DHT22;21609;49.298;6.844;2022-07-22T13:51:32;25.10;54.50
35497;DHT22;21609;49.298;6.844;2022-07-22T13:53:58;25.10;54.40
35497;DHT22;21609;49.298;6.844;2022-07-22T13:56:23;25.10;54.40
35497;DHT22;21609;49.298;6.844;2022-07-22T13:58:49;25.20;54.60
35497;DHT22;21609;49.298;6.844;2022-07-22T14:01:14;25.20;54.50
35497;DHT22;21609;49.298;6.844;2022-07-22T14:03:40;25.20;54.50
35497;DHT22;21609;49.298;6.844;2022-07-22T14:06:06;25.20;54.40
35497;DHT22;21609;49.298;6.844;2022-07-22T14:08:34;25.20;54.40
35497;DHT22;21609;49.298;6.844;2022-07-22T14:10:59;25.20;54.40
35497;DHT22;21609;49.298;6.844;2022-07-22T14:13:25;25.20;54.30
35497;DHT22;21609;49.298;6.844;2022-07-22T14:15:50;25.30;54.30
35497;DHT22;21609;49.298;6.844;2022-07-22T14:18:16;25.30;54.40
35497;DHT22;21609;49.298;6.844;2022-07-22T14:20:42;25.30;54.30
35497;DHT22;21609;49.298;6.844;2022-07-22T14:23:08;25.30;54.30
35497;DHT22;21609;49.298;6.844;2022-07-22T14:25:39;25.30;54.30
35497;DHT22;21609;49.298;6.844;2022-07-22T14:28:05;25.30;54.10
35497;DHT22;21609;49.298;6.844;2022-07-22T14:30:32;25.30;54.30
35497;DHT22;21609;49.298;6.844;2022-07-22T14:32:58;25.30;54.30
35497;DHT22;21609;49.298;6.844;2022-07-22T14:35:25;25.30;54.20
35497;DHT22;21609;49.298;6.844;2022-07-22T14:37:50;25.30;54.30
35497;DHT22;21609;49.298;6.844;2022-07-22T14:40:16;25.30;54.30
35497;DHT22;21609;49.298;6.844;2022-07-22T14:42:42;25.30;54.20
35497;DHT22;21609;49.298;6.844;2022-07-22T14:45:08;25.30;54.20
35497;DHT22;21609;49.298;6.844;2022-07-22T14:47:36;25.30;54.20
35497;DHT22;21609;49.298;6.844;2022-07-22T14:50:02;25.40;54.20
35497;DHT22;21609;49.298;6.844;2022-07-22T14:52:28;25.40;54.20
35497;DHT22;21609;49.298;6.844;2022-07-22T14:54:54;25.40;54.20
35497;DHT22;21609;49.298;6.844;2022-07-22T14:57:19;25.40;54.20
35497;DHT22;21609;49.298;6.844;2022-07-22T14:59:45;25.40;54.20
35497;DHT22;21609;49.298;6.844;2022-07-22T15:02:10;25.40;54.20
35497;DHT22;21609;49.298;6.844;2022-07-22T15:04:36;25.40;54.10
35497;DHT22;21609;49.298;6.844;2022-07-22T15:07:02;25.40;54.10
35497;DHT22;21609;49.298;6.844;2022-07-22T15:09:28;25.40;54.10
35497;DHT22;21609;49.298;6.844;2022-07-22T15:11:54;25.40;54.00
35497;DHT22;21609;49.298;6.844;2022-07-22T15:14:19;25.40;54.00
35497;DHT22;21609;49.298;6.844;2022-07-22T15:16:45;25.40;54.00
35497;DHT22;21609;49.298;6.844;2022-07-22T15:19:11;25.40;54.00
35497;DHT22;21609;49.298;6.844;2022-07-22T15:21:38;25.40;53.90
35497;DHT22;21609;49.298;6.844;2022-07-22T15:24:04;25.40;53.90
35497;DHT22;21609;49.298;6.844;2022-07-22T15:26:30;25.40;54.00
35497;DHT22;21609;49.298;6.844;2022-07-22T15:28:55;25.40;54.00
35497;DHT22;21609;49.298;6.844;2022-07-22T15:31:21;25.40;54.00
35497;DHT22;21609;49.298;6.844;2022-07-22T15:33:47;25.40;54.00
35497;DHT22;21609;49.298;6.844;2022-07-22T15:36:15;25.40;54.00
35497;DHT22;21609;49.298;6.844;2022-07-22T15:38:41;25.40;54.00
35497;DHT22;21609;49.298;6.844;2022-07-22T15:41:07;25.40;54.10
35497;DHT22;21609;49.298;6.844;2022-07-22T15:43:34;25.40;54.10
35497;DHT22;21609;49.298;6.844;2022-07-22T15:46:00;25.40;54.20